Time;durP1;ratioP1;P1;durP2;ratioP2;P2;SDS_P1;SDS_P2;PMS_P1;PMS_P2;Temp;Humidity;BMP_temperature;BMP_pressure;BME280_temperature;BME280_humidity;BME280_pressure;Samples;Min_cycle;Max_cycle;Signal;HPM_P1;HPM_P2
2021/11/16 00:00:12;;;;;;;2.00;1.70;;;;;;;-0.25;66.97;101585.28;5007455;28;20030;-56
2021/11/16 00:02:58;;;;;;;2.90;2.10;;;;;;;-0.28;67.11;101587.66;5005075;28;20080;-56
2021/11/16 00:05:44;;;;;;;2.60;2.00;;;;;;;-0.31;66.26;101573.09;5005729;28;20030;-56
2021/11/16 00:08:31;;;;;;;2.88;1.70;;;;;;;-0.35;66.74;101586.44;5004435;28;20067;-56
2021/11/16 00:11:17;;;;;;;4.43;1.77;;;;;;;-0.26;67.14;101576.75;5005472;28;20105;-56
2021/11/16 00:14:03;;;;;;;2.35;1.80;;;;;;;-0.34;67.09;101578.03;5005916;28;20081;-55
2021/11/16 00:16:49;;;;;;;2.55;1.90;;;;;;;-0.50;67.38;101571.22;4992749;28;20082;-55
2021/11/16 00:19:35;;;;;;;4.45;1.70;;;;;;;-0.57;67.48;101570.03;5011218;28;20346;-55
2021/11/16 00:22:21;;;;;;;2.20;1.80;;;;;;;-0.48;67.76;101573.88;5004924;28;20049;-55
2021/11/16 00:28:02;;;;;;;4.72;1.85;;;;;;;-0.46;67.28;101567.19;5004289;28;20030;-56
2021/11/16 00:30:49;;;;;;;1.70;1.50;;;;;;;-0.55;67.83;101570.09;5006696;28;20068;-56
2021/11/16 00:33:35;;;;;;;2.65;1.50;;;;;;;-0.54;68.53;101567.66;5004239;28;20422;-55
2021/11/16 00:36:21;;;;;;;1.65;1.55;;;;;;;-0.71;68.62;101565.84;5006444;28;20022;-56
2021/11/16 00:39:07;;;;;;;2.90;1.58;;;;;;;-0.59;67.87;101563.09;4989918;28;20335;-55
2021/11/16 00:41:53;;;;;;;4.20;1.75;;;;;;;-0.55;68.41;101558.25;5004815;28;20045;-55
2021/11/16 00:44:39;;;;;;;2.92;1.75;;;;;;;-0.75;68.17;101552.06;4990687;28;20344;-55
2021/11/16 00:47:25;;;;;;;1.85;1.63;;;;;;;-0.71;68.74;101556.53;5004985;28;20331;-55
2021/11/16 00:50:15;;;;;;;2.10;1.30;;;;;;;-0.67;69.22;101551.63;5005393;28;20220;-55
2021/11/16 00:53:01;;;;;;;2.10;1.70;;;;;;;-0.54;69.14;101552.38;5005626;28;20239;-55
2021/11/16 00:55:47;;;;;;;1.70;1.58;;;;;;;-0.69;68.93;101531.19;5002399;28;20041;-55
2021/11/16 00:58:33;;;;;;;3.05;1.50;;;;;;;-0.58;68.19;101534.31;4992636;28;20034;-55
2021/11/16 01:01:20;;;;;;;1.50;1.40;;;;;;;-0.57;68.34;101534.41;5005127;28;20065;-55
2021/11/16 01:04:06;;;;;;;2.00;1.67;;;;;;;-0.48;68.82;101539.09;4994198;28;20022;-55
2021/11/16 01:06:53;;;;;;;1.63;1.50;;;;;;;-0.39;68.30;101529.41;5004680;28;20028;-55
2021/11/16 01:09:39;;;;;;;2.05;1.25;;;;;;;-0.60;67.85;101528.25;5003171;28;20279;-55
2021/11/16 01:12:25;;;;;;;4.05;1.20;;;;;;;-0.53;68.23;101521.06;5004458;28;20034;-55
2021/11/16 01:15:14;;;;;;;1.70;1.55;;;;;;;-0.63;68.95;101503.53;5003341;28;20034;-55
2021/11/16 01:18:01;;;;;;;3.40;1.55;;;;;;;-0.56;67.45;101505.59;4998058;28;20030;-55
2021/11/16 01:20:47;;;;;;;1.85;1.55;;;;;;;-0.45;67.90;101513.81;5003778;28;20097;-55
2021/11/16 01:23:34;;;;;;;2.03;1.60;;;;;;;-0.51;68.47;101493.16;5002883;28;20030;-55
2021/11/16 01:26:20;;;;;;;2.83;1.60;;;;;;;-0.49;68.01;101495.75;5003774;28;20097;-55
2021/11/16 01:29:06;;;;;;;2.95;1.55;;;;;;;-0.40;67.78;101492.03;5003223;28;20037;-55
2021/11/16 01:31:55;;;;;;;1.65;1.10;;;;;;;-0.43;68.18;101480.81;5003687;28;20129;-55
2021/11/16 01:34:46;;;;;;;1.27;1.13;;;;;;;-0.47;67.24;101476.34;5003289;28;20058;-55
2021/11/16 01:37:33;;;;;;;1.30;1.20;;;;;;;-0.48;67.24;101472.94;5003197;28;20030;-54
2021/11/16 01:40:20;;;;;;;1.40;1.30;;;;;;;-0.51;68.45;101477.88;5004432;28;20511;-54
2021/11/16 01:43:08;;;;;;;1.23;1.13;;;;;;;-0.77;67.15;101397.63;5003774;28;20219;-55
2021/11/16 01:45:55;;;;;;;1.73;1.30;;;;;;;-0.58;68.17;101456.31;5001593;28;20022;-54
2021/11/16 01:48:48;;;;;;;1.50;1.30;;;;;;;-0.91;67.73;101395.25;5004331;28;20073;-55
2021/11/16 01:51:34;;;;;;;1.70;1.40;;;;;;;-0.57;67.66;101441.91;5002489;28;20053;-55
2021/11/16 01:54:20;;;;;;;1.35;1.20;;;;;;;-0.43;66.75;101463.88;5003693;28;20097;-55
2021/11/16 01:57:07;;;;;;;2.17;1.35;;;;;;;-0.62;68.44;101453.53;4997896;28;20030;-54
2021/11/16 01:59:53;;;;;;;2.78;1.52;;;;;;;-0.54;67.74;101454.81;5004103;28;20224;-55
2021/11/16 02:02:39;;;;;;;4.35;1.63;;;;;;;-0.47;68.58;101456.00;5003485;28;20037;-55
2021/11/16 02:05:46;;;;;;;3.53;1.55;;;;;;;-0.62;67.22;101444.22;4987557;28;20069;-54
2021/11/16 02:08:33;;;;;;;1.85;1.67;;;;;;;-0.44;67.69;101453.59;4988904;28;20038;-55
2021/11/16 02:11:20;;;;;;;1.50;1.40;;;;;;;-0.44;68.53;101448.50;5002868;28;20544;-56
2021/11/16 02:14:09;;;;;;;3.22;1.50;;;;;;;-0.65;66.98;101377.91;4990632;28;20022;-56
2021/11/16 02:16:55;;;;;;;1.50;1.40;;;;;;;-0.12;66.45;101441.66;4999261;28;20018;-56
2021/11/16 02:19:43;;;;;;;2.45;1.58;;;;;;;-0.59;67.36;101373.13;5001697;28;20037;-55
2021/11/16 02:22:30;;;;;;;4.13;1.80;;;;;;;-0.22;66.88;101436.09;4993910;28;20658;-55
2021/11/16 02:25:16;;;;;;;2.08;1.65;;;;;;;-0.20;66.51;101439.59;5001957;28;20207;-56
2021/11/16 02:28:04;;;;;;;2.40;1.90;;;;;;;-0.16;66.77;101437.22;4996263;28;20049;-55
2021/11/16 02:30:50;;;;;;;1.83;1.50;;;;;;;-0.04;67.47;101441.25;4996184;28;20068;-54
2021/11/16 02:33:36;;;;;;;2.80;1.63;;;;;;;0.01;66.49;101430.44;5002061;28;20046;-55
2021/11/16 02:36:26;;;;;;;1.83;1.73;;;;;;;-0.10;67.03;101422.22;5002940;28;20076;-55
2021/11/16 02:39:15;;;;;;;2.17;1.75;;;;;;;0.01;66.38;101410.91;5004012;28;20393;-56
2021/11/16 02:42:02;;;;;;;2.38;1.60;;;;;;;-0.04;66.99;101404.75;5002598;28;20030;-55
2021/11/16 02:44:48;;;;;;;1.55;1.45;;;;;;;0.10;66.64;101408.84;5002221;28;20343;-55
2021/11/16 02:47:34;;;;;;;1.95;1.55;;;;;;;0.08;66.96;101400.22;5003096;28;20030;-55
2021/11/16 02:50:20;;;;;;;1.38;1.27;;;;;;;0.07;66.72;101393.41;5002542;28;20205;-56
2021/11/16 02:53:07;;;;;;;3.35;1.50;;;;;;;-0.04;66.94;101377.59;5002333;28;20022;-55
2021/11/16 02:55:53;;;;;;;1.55;1.17;;;;;;;-0.12;66.57;101378.88;5002773;28;20026;-55
2021/11/16 02:58:40;;;;;;;1.33;1.27;;;;;;;-0.03;67.07;101381.88;5002572;28;20026;-56
2021/11/16 03:01:26;;;;;;;2.70;1.30;;;;;;;0.00;66.66;101381.19;5001191;28;20029;-55
2021/11/16 03:04:20;;;;;;;1.50;1.33;;;;;;;-0.20;66.73;101337.78;5001593;28;20059;-56
2021/11/16 03:07:06;;;;;;;1.38;1.25;;;;;;;-0.13;66.26;101356.75;5002313;28;20056;-56
2021/11/16 03:09:52;;;;;;;1.48;1.20;;;;;;;-0.11;66.54;101361.94;5002791;28;20386;-56
2021/11/16 03:12:38;;;;;;;9.80;1.60;;;;;;;-0.16;66.89;101337.91;5002602;28;20038;-56
2021/11/16 03:15:25;;;;;;;2.00;1.75;;;;;;;-0.31;66.93;101348.19;5002866;28;20231;-56
2021/11/16 03:18:11;;;;;;;1.88;1.45;;;;;;;-0.22;67.29;101333.41;5000149;28;20034;-55
2021/11/16 03:20:57;;;;;;;1.35;1.23;;;;;;;-0.19;66.43;101328.44;4984201;28;20209;-55
2021/11/16 03:23:45;;;;;;;2.30;1.50;;;;;;;-0.10;66.32;101339.09;4986021;28;20053;-56
2021/11/16 03:26:31;;;;;;;1.30;1.20;;;;;;;-0.12;66.27;101327.94;4986729;28;20042;-56
2021/11/16 03:29:19;;;;;;;4.07;1.23;;;;;;;-0.07;66.75;101333.25;5000566;28;20358;-55
2021/11/16 03:32:09;;;;;;;4.00;1.20;;;;;;;0.06;65.68;101335.63;4987176;28;20257;-55
2021/11/16 03:34:54;;;;;;;2.28;1.20;;;;;;;-0.15;66.78;101317.63;5002148;28;20076;-55
2021/11/16 03:37:46;;;;;;;1.38;1.27;;;;;;;-0.16;65.91;101304.81;5001824;28;20030;-56
2021/11/16 03:40:34;;;;;;;;;;;;;;;-0.12;66.37;101334.72;5003383;28;20023;-55
2021/11/16 03:43:21;;;;;;;1.67;1.00;;;;;;;-0.07;66.46;101331.59;5002742;28;19921;-56
2021/11/16 03:46:07;;;;;;;3.92;1.42;;;;;;;0.01;66.11;101320.91;5001782;28;20022;-56
2021/11/16 03:48:54;;;;;;;3.15;1.20;;;;;;;0.00;67.08;101312.41;5002045;28;20089;-56
2021/11/16 03:51:43;;;;;;;2.10;1.05;;;;;;;0.03;66.29;101312.56;5002947;28;20055;-56
2021/11/16 03:54:29;;;;;;;2.03;1.20;;;;;;;0.01;66.21;101308.19;4993478;28;20305;-56
2021/11/16 03:57:16;;;;;;;2.25;1.30;;;;;;;-0.09;66.78;101295.00;5001547;28;20038;-55
2021/11/16 04:00:08;;;;;;;4.53;1.50;;;;;;;-0.14;66.50;101270.13;5000962;28;20335;-55
2021/11/16 04:02:54;;;;;;;1.45;1.35;;;;;;;-0.18;66.84;101269.97;4999814;28;20322;-55
2021/11/16 04:05:40;;;;;;;4.38;1.58;;;;;;;-0.04;66.66;101282.50;5000468;28;20090;-55
2021/11/16 04:08:26;;;;;;;2.25;1.35;;;;;;;-0.04;66.27;101277.41;5000777;28;20026;-57
2021/11/16 04:11:12;;;;;;;1.83;1.17;;;;;;;0.06;66.32;101268.50;4999878;28;20583;-57
2021/11/16 04:13:58;;;;;;;1.52;1.30;;;;;;;-0.06;66.69;101261.16;5001216;28;20029;-56
2021/11/16 04:16:44;;;;;;;1.50;1.13;;;;;;;0.09;65.85;101278.88;5000592;28;20080;-57
2021/11/16 04:19:31;;;;;;;2.33;1.25;;;;;;;0.11;65.81;101270.47;5001512;28;20038;-59
2021/11/16 04:22:17;;;;;;;5.28;1.35;;;;;;;0.13;66.21;101271.44;4980463;28;20030;-58
2021/11/16 04:25:05;;;;;;;5.03;1.45;;;;;;;0.13;65.85;101270.56;5001211;28;20022;-56
2021/11/16 04:27:51;;;;;;;2.05;1.42;;;;;;;0.10;66.45;101268.75;4998073;28;20033;-56
2021/11/16 04:30:40;;;;;;;5.95;1.77;;;;;;;0.17;66.63;101270.78;5009022;28;20054;-55
2021/11/16 04:33:27;;;;;;;2.97;1.48;;;;;;;0.05;66.46;101252.38;5000758;28;20041;-54
2021/11/16 04:36:17;;;;;;;4.00;1.40;;;;;;;0.10;66.79;101247.47;5000750;28;20034;-55
2021/11/16 04:39:06;;;;;;;2.20;1.48;;;;;;;-0.07;66.04;101233.94;5002145;28;20034;-55
2021/11/16 04:41:52;;;;;;;4.93;1.70;;;;;;;-0.07;66.55;101228.84;5000399;28;20331;-57
2021/11/16 04:44:38;;;;;;;4.15;1.50;;;;;;;-0.01;66.90;101222.38;5004491;28;20112;-57
2021/11/16 04:47:37;;;;;;;4.10;1.70;;;;;;;0.05;66.93;101220.94;5004744;28;20030;-59
2021/11/16 04:59:55;;;;;;;2.95;1.77;;;;;;;0.05;66.44;101201.44;5005450;28;20045;-57
2021/11/16 05:02:43;;;;;;;2.20;1.40;;;;;;;0.00;66.50;101192.72;5003623;28;20038;-57
2021/11/16 05:05:29;;;;;;;2.10;1.52;;;;;;;-0.10;68.23;101198.16;5003932;28;20034;-57
2021/11/16 05:08:15;;;;;;;3.75;1.10;;;;;;;-0.06;67.59;101203.50;5003874;28;20129;-58
2021/11/16 05:11:01;;;;;;;3.85;1.60;;;;;;;0.02;67.05;101190.25;5003040;28;20026;-57
2021/11/16 05:13:48;;;;;;;1.33;1.15;;;;;;;0.04;66.97;101193.72;5002273;28;20266;-57
2021/11/16 05:16:34;;;;;;;1.95;1.38;;;;;;;-0.21;67.52;101196.00;4993320;28;20038;-58
2021/11/16 05:19:20;;;;;;;3.08;1.60;;;;;;;-0.23;68.60;101189.09;5003492;28;20234;-56
2021/11/16 05:22:06;;;;;;;1.95;1.20;;;;;;;-0.26;68.08;101194.03;5003515;28;20361;-58
2021/11/16 05:24:52;;;;;;;3.00;1.30;;;;;;;-0.20;68.47;101187.56;5004525;28;20026;-57
2021/11/16 05:27:39;;;;;;;3.60;1.45;;;;;;;-0.26;68.15;101183.84;5004319;28;20039;-58
2021/11/16 05:30:28;;;;;;;1.73;1.30;;;;;;;-0.21;68.46;101182.41;5004049;28;20148;-57
2021/11/16 05:33:15;;;;;;;3.25;1.50;;;;;;;-0.22;68.04;101195.94;5003267;28;20065;-57
2021/11/16 05:36:01;;;;;;;3.13;1.48;;;;;;;-0.26;68.62;101191.50;4986385;28;20169;-57
2021/11/16 05:38:48;;;;;;;4.93;1.50;;;;;;;-0.28;67.90;101183.78;4988175;28;20030;-57
2021/11/16 05:41:34;;;;;;;2.88;1.83;;;;;;;-0.24;68.24;101177.19;5003941;28;20033;-57
2021/11/16 05:44:21;;;;;;;3.45;1.60;;;;;;;-0.25;69.09;101161.00;4988551;28;20097;-57
2021/11/16 05:47:07;;;;;;;3.53;1.67;;;;;;;-0.22;67.97;101147.56;4989489;28;20139;-56
2021/11/16 05:49:53;;;;;;;2.33;1.90;;;;;;;-0.29;69.43;101143.84;5003727;28;20026;-57
2021/11/16 05:52:39;;;;;;;2.40;1.90;;;;;;;-0.35;69.12;101128.31;5002047;28;20034;-57
2021/11/16 05:55:25;;;;;;;4.82;1.83;;;;;;;-0.46;69.95;101142.22;5002540;28;20057;-57
2021/11/16 05:58:16;;;;;;;4.70;1.85;;;;;;;-0.29;69.58;101153.19;5001806;28;20092;-57
2021/11/16 06:01:02;;;;;;;3.75;1.90;;;;;;;-0.33;68.89;101148.75;5003176;28;20036;-57
2021/11/16 06:03:52;;;;;;;2.10;1.70;;;;;;;-0.35;68.29;101129.16;5001473;28;20370;-56
2021/11/16 06:06:40;;;;;;;3.85;1.90;;;;;;;-0.33;69.06;101130.94;5007467;28;20030;-56
2021/11/16 06:09:27;;;;;;;4.07;1.67;;;;;;;-0.38;68.69;101143.44;5002593;28;20027;-57
2021/11/16 06:12:13;;;;;;;4.10;1.95;;;;;;;-0.28;68.77;101137.97;5002608;28;20031;-56
2021/11/16 06:14:59;;;;;;;3.20;1.70;;;;;;;-0.21;68.80;101132.34;5002880;28;20034;-57
2021/11/16 06:17:45;;;;;;;6.53;1.50;;;;;;;-0.27;68.81;101137.19;5023369;28;20026;-56
2021/11/16 06:20:32;;;;;;;3.13;1.80;;;;;;;-0.18;68.96;101132.50;5003442;28;20438;-58
2021/11/16 06:23:18;;;;;;;4.00;1.65;;;;;;;-0.31;68.91;101114.94;4995168;28;20034;-57
2021/11/16 06:26:05;;;;;;;2.13;1.52;;;;;;;-0.27;69.24;101099.00;4998417;28;20038;-57
2021/11/16 06:28:51;;;;;;;3.65;1.70;;;;;;;-0.21;68.21;101122.19;5001587;28;20211;-56
2021/11/16 06:31:37;;;;;;;5.65;1.88;;;;;;;-0.31;69.37;101114.94;5002387;28;20235;-56
2021/11/16 06:34:24;;;;;;;6.38;1.98;;;;;;;-0.39;69.45;101106.91;4998037;28;20054;-57
2021/11/16 06:37:10;;;;;;;2.60;1.70;;;;;;;-0.30;69.52;101103.06;5002733;28;20278;-57
2021/11/16 06:39:56;;;;;;;7.85;2.25;;;;;;;-0.26;68.47;101099.84;5001561;28;20389;-57
2021/11/16 06:42:42;;;;;;;4.03;2.13;;;;;;;-0.30;69.41;101108.16;5001155;28;20054;-56
2021/11/16 06:45:28;;;;;;;3.17;1.90;;;;;;;-0.14;69.11;101112.25;5003217;28;20041;-56
2021/11/16 06:48:14;;;;;;;4.07;2.10;;;;;;;-0.16;68.89;101096.06;5002196;28;20022;-58
2021/11/16 06:51:01;;;;;;;6.43;2.20;;;;;;;-0.20;68.11;101108.66;5002477;28;20347;-58
2021/11/16 06:53:47;;;;;;;3.60;2.05;;;;;;;-0.34;69.47;101102.06;5002029;28;20260;-57
2021/11/16 06:56:33;;;;;;;4.07;3.03;;;;;;;-0.32;69.65;101104.69;5001892;28;20022;-56
2021/11/16 06:59:24;;;;;;;9.15;2.47;;;;;;;-0.18;68.99;101114.69;5001948;28;20034;-57
2021/11/16 07:02:10;;;;;;;4.28;2.20;;;;;;;-0.27;68.87;101101.53;4999717;28;20042;-57
2021/11/16 07:04:56;;;;;;;3.90;2.35;;;;;;;-0.27;69.22;101078.63;5001762;28;20022;-57
2021/11/16 07:07:45;;;;;;;6.32;2.40;;;;;;;-0.11;68.94;101113.28;4985570;28;20031;-58
2021/11/16 07:10:32;;;;;;;7.28;3.22;;;;;;;0.00;69.27;101095.97;5028774;28;20041;-57
2021/11/16 07:13:17;;;;;;;4.88;2.40;;;;;;;-0.08;69.20;101085.41;5002034;28;20026;-56
2021/11/16 07:16:13;;;;;;;3.60;2.67;;;;;;;-0.06;68.54;101095.66;4987944;28;20030;-58
2021/11/16 07:19:02;;;;;;;7.78;2.65;;;;;;;0.12;68.42;101093.06;5001352;28;20047;-57
2021/11/16 07:21:50;;;;;;;3.28;2.38;;;;;;;0.56;66.82;101075.41;5003650;28;20022;-58
2021/11/16 07:25:02;;;;;;;8.05;2.83;;;;;;;0.25;66.28;101016.38;4990226;28;20022;-57
2021/11/16 07:27:51;;;;;;;;;;;;;;;0.30;67.51;101067.50;5001939;28;20022;-58
2021/11/16 07:30:37;;;;;;;4.88;2.70;;;;;;;0.43;67.51;101066.34;5002941;28;20009;-58
2021/11/16 07:33:23;;;;;;;5.70;2.15;;;;;;;0.38;67.29;101072.94;5001349;28;20046;-57
2021/11/16 07:36:10;;;;;;;3.88;2.53;;;;;;;0.24;67.74;101067.25;5001748;28;20346;-57
2021/11/16 07:39:03;;;;;;;5.28;2.42;;;;;;;0.57;67.03;101074.56;5000514;28;20023;-58
2021/11/16 07:41:51;;;;;;;10.20;2.55;;;;;;;0.80;65.95;101068.75;5006973;28;20041;-57
2021/11/16 07:44:37;;;;;;;5.40;2.47;;;;;;;1.36;64.83;101081.16;4999205;28;20025;-58
2021/11/16 07:47:37;;;;;;;4.15;2.38;;;;;;;1.18;64.01;100999.66;5001428;28;20057;-56
2021/11/16 07:50:32;;;;;;;6.97;2.92;;;;;;;1.84;63.31;101055.72;4995199;28;20236;-57
2021/11/16 07:53:47;;;;;;;8.90;2.63;;;;;;;1.87;61.92;101055.81;5001384;28;20323;-57
2021/11/16 07:56:33;;;;;;;5.45;2.30;;;;;;;2.12;61.65;101058.38;5001003;28;20034;-56
2021/11/16 07:59:23;;;;;;;12.60;3.60;;;;;;;1.46;62.44;100976.03;5000986;28;20069;-57
2021/11/16 08:02:20;;;;;;;8.25;2.70;;;;;;;1.70;62.31;101041.59;5002104;28;20072;-57
2021/11/16 08:05:40;;;;;;;5.18;2.40;;;;;;;1.48;62.42;100988.84;5001216;28;20208;-57
2021/11/16 08:11:38;;;;;;;4.57;2.55;;;;;;;1.66;62.84;101065.25;5002145;28;20029;-57
2021/11/16 08:14:24;;;;;;;6.75;2.53;;;;;;;1.72;62.49;101045.94;5001189;28;20231;-57
2021/11/16 08:17:10;;;;;;;7.53;2.65;;;;;;;1.80;62.30;101046.19;5000918;28;20046;-57
2021/11/16 08:19:59;;;;;;;4.82;2.30;;;;;;;1.97;62.24;101035.75;5004378;28;20026;-57
2021/11/16 08:22:46;;;;;;;10.98;3.50;;;;;;;1.78;62.37;101019.75;5003777;28;20073;-57
2021/11/16 08:25:32;;;;;;;9.93;3.13;;;;;;;1.57;63.36;101004.53;5006440;28;20320;-57
2021/11/16 08:28:18;;;;;;;8.93;2.70;;;;;;;1.55;62.92;100990.81;5005168;28;20227;-56
2021/11/16 08:31:09;;;;;;;8.05;2.80;;;;;;;1.19;63.17;100941.03;5004595;28;20358;-56
2021/11/16 08:33:55;;;;;;;4.88;2.72;;;;;;;1.94;62.45;100987.06;5004450;28;20082;-57
2021/11/16 08:36:47;;;;;;;4.72;2.33;;;;;;;2.02;62.01;100980.53;5005482;28;20208;-57
2021/11/16 08:39:48;;;;;;;4.05;2.40;;;;;;;1.79;62.07;100990.81;4989341;28;20097;-57
2021/11/16 08:42:38;;;;;;;4.53;2.40;;;;;;;1.44;61.85;100910.41;4990610;28;20069;-56
2021/11/16 08:45:37;;;;;;;6.35;1.95;;;;;;;1.33;62.24;100938.13;5016831;28;20188;-55
2021/11/16 08:48:24;;;;;;;4.93;2.60;;;;;;;1.50;62.74;100954.06;5004136;28;20045;-57
2021/11/16 08:51:17;;;;;;;3.15;2.20;;;;;;;1.60;62.16;100948.47;5004688;28;20038;-55
2021/11/16 08:54:03;;;;;;;3.22;2.28;;;;;;;1.58;62.78;100951.75;5008658;28;20021;-57
2021/11/16 08:56:49;;;;;;;2.85;2.25;;;;;;;1.75;61.33;100954.91;5013076;28;20085;-57
2021/11/16 08:59:36;;;;;;;5.15;2.75;;;;;;;2.29;61.10;100941.41;5004414;28;20034;-57
2021/11/16 09:02:26;;;;;;;9.85;2.25;;;;;;;2.40;59.05;100860.81;5004485;28;20259;-57
2021/11/16 09:05:14;;;;;;;4.10;2.33;;;;;;;2.44;59.35;100926.56;5005028;28;20021;-57
2021/11/16 09:08:02;;;;;;;4.15;2.72;;;;;;;2.65;59.34;100920.38;5003827;28;20046;-56
2021/11/16 09:10:51;;;;;;;4.30;2.40;;;;;;;2.10;59.97;100904.16;5004769;28;20105;-57
2021/11/16 09:13:38;;;;;;;4.55;2.42;;;;;;;1.86;60.70;100910.19;5002791;28;20034;-56
2021/11/16 09:16:28;;;;;;;4.53;2.40;;;;;;;1.34;61.19;100883.69;4996015;28;20029;-57
2021/11/16 09:19:34;;;;;;;5.97;2.60;;;;;;;1.94;60.75;100953.84;5000973;28;20035;-57
2021/11/16 09:22:21;;;;;;;3.88;2.58;;;;;;;1.99;61.22;100948.09;5004717;28;20077;-57
2021/11/16 09:25:26;;;;;;;6.55;2.92;;;;;;;1.86;60.84;100943.38;5003579;28;20283;-56
2021/11/16 09:28:38;;;;;;;8.80;2.47;;;;;;;1.93;60.60;100924.03;5003395;28;20030;-56
2021/11/16 09:31:34;;;;;;;14.32;4.15;;;;;;;1.76;60.86;100896.22;5003971;28;20031;-56
2021/11/16 09:34:20;;;;;;;3.28;2.70;;;;;;;1.72;61.50;100891.84;5004118;28;20201;-56
2021/11/16 09:37:15;;;;;;;5.07;3.20;;;;;;;1.55;61.09;100881.94;5003746;28;20130;-57
2021/11/16 09:40:04;;;;;;;7.03;2.42;;;;;;;1.38;60.95;100834.50;5004814;28;20045;-57
2021/11/16 09:42:50;;;;;;;5.57;2.65;;;;;;;1.61;60.66;100899.16;5004120;28;20033;-57
2021/11/16 09:45:41;;;;;;;3.28;2.38;;;;;;;1.59;60.91;100898.19;5003133;28;20019;-57
2021/11/16 09:48:27;;;;;;;5.07;2.88;;;;;;;1.69;60.65;100895.16;5003324;28;20053;-57
2021/11/16 09:51:19;;;;;;;5.47;2.50;;;;;;;1.67;60.79;100890.81;5003017;28;20089;-56
2021/11/16 09:54:09;;;;;;;4.60;2.50;;;;;;;1.41;60.98;100833.75;5003220;28;20045;-56
2021/11/16 09:57:05;;;;;;;11.50;2.75;;;;;;;1.58;60.97;100867.53;4999890;28;20267;-56
2021/11/16 10:00:00;;;;;;;4.75;2.88;;;;;;;1.43;60.41;100863.63;5003032;28;20065;-56
2021/11/16 10:02:49;;;;;;;5.78;2.88;;;;;;;1.57;60.67;100858.13;5003666;28;20026;-57
2021/11/16 10:05:41;;;;;;;3.38;2.70;;;;;;;1.68;60.29;100879.78;5029930;28;20304;-57
2021/11/16 10:08:28;;;;;;;5.28;2.80;;;;;;;1.82;60.08;100883.66;5030314;28;20354;-57
2021/11/16 10:11:14;;;;;;;4.05;2.65;;;;;;;1.84;60.12;100871.81;5003327;28;20451;-56
2021/11/16 10:14:01;;;;;;;3.75;2.22;;;;;;;1.80;59.04;100871.69;5002206;28;20030;-56
2021/11/16 10:16:51;;;;;;;6.50;3.60;;;;;;;1.88;59.01;100871.13;4995714;28;20030;-57
2021/11/16 10:19:37;;;;;;;5.57;2.83;;;;;;;1.93;59.43;100870.41;5002995;28;20026;-57
2021/11/16 10:22:23;;;;;;;6.38;3.03;;;;;;;1.92;59.70;100855.88;5003066;28;20033;-57
2021/11/16 10:25:21;;;;;;;10.52;3.47;;;;;;;1.64;59.81;100786.91;5002355;28;20108;-57
2021/11/16 10:28:12;;;;;;;4.60;3.33;;;;;;;2.13;59.76;100853.16;4991440;28;20343;-57
2021/11/16 10:30:59;;;;;;;4.90;3.03;;;;;;;2.12;60.21;100844.59;5002004;28;20038;-56
2021/11/16 10:33:50;;;;;;;5.82;3.42;;;;;;;1.82;60.10;100775.53;5001353;28;20077;-57
2021/11/16 10:36:36;;;;;;;7.43;3.58;;;;;;;2.24;60.18;100834.78;5004474;28;20102;-57
2021/11/16 10:39:23;;;;;;;7.65;3.78;;;;;;;2.18;59.92;100824.38;5002714;28;20030;-56
2021/11/16 10:42:16;;;;;;;4.53;3.17;;;;;;;2.27;59.27;100830.56;5001563;28;20106;-56
2021/11/16 10:45:03;;;;;;;5.38;3.13;;;;;;;2.21;59.29;100832.13;4987513;28;20070;-56
2021/11/16 10:47:50;;;;;;;10.00;3.20;;;;;;;2.28;59.48;100825.53;4999032;28;20069;-56
2021/11/16 10:50:38;;;;;;;8.25;3.70;;;;;;;2.30;58.79;100840.91;5002695;28;20036;-56
2021/11/16 10:53:29;;;;;;;6.65;3.40;;;;;;;1.82;58.37;100755.97;5002195;28;20085;-56
2021/11/16 10:56:22;;;;;;;9.27;3.55;;;;;;;2.29;59.20;100808.50;5003226;28;20054;-56
2021/11/16 10:59:13;;;;;;;8.00;3.75;;;;;;;2.07;58.93;100755.03;5002386;28;20026;-56
2021/11/16 11:02:00;;;;;;;8.05;4.03;;;;;;;2.28;58.71;100809.31;5001292;28;20358;-56
2021/11/16 11:04:46;;;;;;;6.70;3.30;;;;;;;2.41;58.50;100807.19;5028468;28;20045;-57
2021/11/16 11:07:38;;;;;;;9.18;3.63;;;;;;;2.22;58.72;100808.31;5000702;28;20097;-56
2021/11/16 11:10:24;;;;;;;10.50;3.95;;;;;;;2.23;58.59;100815.16;5002233;28;20222;-57
2021/11/16 11:13:20;;;;;;;7.63;4.15;;;;;;;2.32;58.97;100799.22;5000665;28;20302;-57
2021/11/16 11:16:17;;;;;;;8.80;3.83;;;;;;;2.34;58.64;100804.41;4985532;28;20039;-56
2021/11/16 11:19:06;;;;;;;8.20;3.72;;;;;;;2.21;58.37;100775.91;5001408;28;20089;-56
2021/11/16 11:22:10;;;;;;;8.68;3.33;;;;;;;2.40;58.36;100814.81;5000730;28;20030;-56
2021/11/16 11:25:06;;;;;;;6.40;3.30;;;;;;;2.47;58.81;100797.97;5002734;28;20034;-56
2021/11/16 11:28:01;;;;;;;8.10;4.20;;;;;;;1.88;58.25;100738.31;4997201;28;20037;-56
2021/11/16 11:30:47;;;;;;;5.47;3.15;;;;;;;2.40;58.47;100789.25;4995128;28;20026;-57
2021/11/16 11:33:49;;;;;;;8.18;3.80;;;;;;;2.31;57.87;100786.41;5001806;28;20037;-57
2021/11/16 11:36:35;;;;;;;4.35;3.55;;;;;;;2.18;58.09;100803.94;5001752;28;20034;-56
2021/11/16 11:39:23;;;;;;;7.97;3.88;;;;;;;1.92;58.56;100746.06;5001070;28;20334;-59
2021/11/16 11:42:13;;;;;;;5.97;3.85;;;;;;;2.33;58.23;100797.56;4998820;28;20073;-57
2021/11/16 11:45:10;;;;;;;8.30;3.70;;;;;;;2.00;57.69;100755.69;4997423;28;20097;-57
2021/11/16 11:47:59;;;;;;;8.50;4.03;;;;;;;2.19;57.99;100792.88;4999642;28;20153;-57
2021/11/16 11:50:47;;;;;;;7.32;3.42;;;;;;;1.78;57.26;100720.06;4999922;28;20030;-57
2021/11/16 11:53:34;;;;;;;8.50;3.80;;;;;;;1.83;56.95;100732.16;4988883;28;20050;-56
2021/11/16 11:56:21;;;;;;;9.07;3.63;;;;;;;2.19;57.40;100782.66;5001275;28;20330;-56
2021/11/16 11:59:07;;;;;;;7.28;3.42;;;;;;;2.21;56.57;100777.63;4988118;28;20023;-57
2021/11/16 12:01:54;;;;;;;13.15;3.90;;;;;;;2.22;56.80;100782.78;5000948;28;20058;-57
2021/11/16 12:04:40;;;;;;;10.27;3.45;;;;;;;2.04;56.63;100754.09;5001616;28;20336;-57
2021/11/16 12:07:30;;;;;;;7.97;2.95;;;;;;;1.72;56.07;100711.44;4990382;28;20267;-56
2021/11/16 12:10:16;;;;;;;8.13;3.22;;;;;;;2.10;55.54;100779.84;5002917;28;20026;-56
2021/11/16 12:13:03;;;;;;;2.78;2.30;;;;;;;2.03;55.88;100766.00;5002083;28;20026;-55
2021/11/16 12:16:03;;;;;;;5.90;2.55;;;;;;;2.08;55.81;100768.69;4985967;28;20062;-57
2021/11/16 12:19:01;;;;;;;9.75;3.00;;;;;;;2.02;55.79;100765.94;5027457;28;20026;-57
2021/11/16 12:21:49;;;;;;;5.22;2.88;;;;;;;1.99;55.52;100758.19;4992757;28;20022;-56
2021/11/16 12:24:34;;;;;;;4.35;3.08;;;;;;;1.95;54.88;100756.34;5000419;28;20026;-56
2021/11/16 12:27:30;;;;;;;5.88;2.80;;;;;;;1.98;55.78;100751.34;5024765;28;20566;-56
2021/11/16 12:30:38;;;;;;;8.15;2.95;;;;;;;1.70;55.57;100707.94;5001475;28;20035;-55
2021/11/16 12:33:39;;;;;;;6.32;2.67;;;;;;;1.89;55.73;100728.94;5000772;28;20026;-56
2021/11/16 12:36:31;;;;;;;8.02;2.72;;;;;;;2.00;55.81;100742.06;5000552;28;20042;-57
2021/11/16 12:39:19;;;;;;;6.40;3.40;;;;;;;1.93;56.06;100733.31;5007060;28;20026;-57
2021/11/16 12:42:18;;;;;;;10.35;3.20;;;;;;;1.79;56.30;100730.34;5001746;28;20042;-56
2021/11/16 12:45:08;;;;;;;6.22;3.45;;;;;;;1.48;56.85;100667.25;5001322;28;20102;-56
2021/11/16 12:47:57;;;;;;;8.98;3.28;;;;;;;1.60;56.73;100669.34;5002105;28;20026;-56
2021/11/16 12:51:05;;;;;;;6.57;2.85;;;;;;;1.93;57.03;100728.22;4983955;28;20035;-56
2021/11/16 12:53:59;;;;;;;11.82;3.40;;;;;;;1.72;57.12;100688.44;4997967;28;20098;-56
2021/11/16 12:56:50;;;;;;;7.53;3.20;;;;;;;1.98;57.12;100733.47;5000547;28;20088;-57
2021/11/16 12:59:45;;;;;;;10.05;3.45;;;;;;;1.97;56.64;100731.75;5000557;28;20034;-57
2021/11/16 13:02:50;;;;;;;6.18;3.88;;;;;;;1.87;56.93;100723.78;5000889;28;20026;-56
2021/11/16 13:05:43;;;;;;;8.38;3.60;;;;;;;1.82;57.37;100747.44;4998118;28;20291;-56
2021/11/16 13:08:29;;;;;;;7.50;3.20;;;;;;;1.70;57.29;100712.19;4990969;28;20037;-56
2021/11/16 13:11:43;;;;;;;9.38;3.72;;;;;;;1.79;57.57;100721.81;4999585;28;20093;-56
2021/11/16 13:14:38;;;;;;;8.02;3.42;;;;;;;1.77;58.24;100721.78;5003229;28;20038;-57
2021/11/16 13:18:00;;;;;;;9.07;3.88;;;;;;;1.73;57.72;100722.50;4985968;28;20047;-56
2021/11/16 13:20:50;;;;;;;9.68;3.90;;;;;;;1.47;58.02;100675.72;4997605;28;20299;-56
2021/11/16 13:23:50;;;;;;;8.23;3.22;;;;;;;1.53;58.01;100699.75;5002936;28;20019;-57
2021/11/16 13:26:47;;;;;;;5.38;3.17;;;;;;;1.74;58.41;100737.00;5003914;28;20037;-57